Time;durP1;ratioP1;P1;durP2;ratioP2;P2;SDS_P1;SDS_P2;PMS_P1;PMS_P2;Temp;Humidity;BMP_temperature;BMP_pressure;BME280_temperature;BME280_humidity;BME280_pressure;Samples;Min_cycle;Max_cycle;Signal;HPM_P1;HPM_P2
2022/03/23 00:01:24;;;;;;;1999.90;999.90;;;12.50;49.10;;;;;;5003517;28;20038;-81
2022/03/23 00:03:50;;;;;;;1999.90;999.90;;;12.60;49.30;;;;;;4991416;28;20050;-81
2022/03/23 00:06:17;;;;;;;1999.90;999.90;;;12.50;49.20;;;;;;4990974;28;20380;-81
2022/03/23 00:08:44;;;;;;;1999.90;999.90;;;12.50;49.30;;;;;;5004313;28;20053;-81
2022/03/23 00:11:10;;;;;;;1999.90;999.90;;;12.50;49.30;;;;;;4991697;28;20034;-81
2022/03/23 00:13:36;;;;;;;1999.90;999.90;;;12.50;49.30;;;;;;4990223;28;20046;-81
2022/03/23 00:16:04;;;;;;;1999.90;999.90;;;12.50;49.40;;;;;;4990800;28;20051;-81
2022/03/23 00:18:30;;;;;;;1999.90;999.90;;;12.40;49.40;;;;;;4986970;28;20061;-81
2022/03/23 00:20:56;;;;;;;1999.90;999.90;;;12.40;49.40;;;;;;5007884;28;20034;-81
2022/03/23 00:23:22;;;;;;;1999.90;999.90;;;12.40;49.50;;;;;;4990758;28;20038;-81
2022/03/23 00:25:48;;;;;;;1999.90;999.90;;;12.30;49.50;;;;;;4991776;28;20039;-81
2022/03/23 00:28:15;;;;;;;1999.90;999.90;;;12.30;49.60;;;;;;5006019;28;20057;-81
2022/03/23 00:30:41;;;;;;;1999.90;999.90;;;12.20;49.60;;;;;;4972240;28;20309;-81
2022/03/23 00:33:07;;;;;;;1999.90;999.90;;;12.20;49.60;;;;;;4991497;28;20037;-81
2022/03/23 00:35:34;;;;;;;1999.90;999.90;;;12.20;49.60;;;;;;4990548;28;20463;-81
2022/03/23 00:38:00;;;;;;;1999.90;999.90;;;12.20;49.70;;;;;;4990556;28;20526;-81
2022/03/23 00:40:28;;;;;;;1999.90;999.90;;;12.10;49.60;;;;;;4990544;28;20034;-81
2022/03/23 00:42:55;;;;;;;1999.90;999.90;;;12.10;49.60;;;;;;5006147;28;20152;-81
2022/03/23 00:45:22;;;;;;;1999.90;999.90;;;12.10;49.70;;;;;;4991321;28;20058;-81
2022/03/23 00:47:48;;;;;;;1999.90;999.90;;;12.10;49.70;;;;;;4992127;28;20041;-81
2022/03/23 00:50:15;;;;;;;1999.90;999.90;;;12.00;49.70;;;;;;4991046;28;20034;-81
2022/03/23 00:52:42;;;;;;;1999.90;999.90;;;12.00;49.70;;;;;;4990892;28;20062;-81
2022/03/23 00:55:09;;;;;;;1999.90;999.90;;;12.00;49.70;;;;;;5005493;28;20479;-81
2022/03/23 00:57:36;;;;;;;1999.90;999.90;;;12.00;49.70;;;;;;4974361;28;20488;-81
2022/03/23 01:00:06;;;;;;;1999.90;999.90;;;12.00;49.80;;;;;;4992450;28;20041;-79
2022/03/23 01:02:35;;;;;;;1999.90;999.90;;;12.00;49.70;;;;;;5004215;28;20031;-81
2022/03/23 01:05:02;;;;;;;1999.90;999.90;;;12.00;49.70;;;;;;4973166;28;20058;-81
2022/03/23 01:07:28;;;;;;;1999.90;999.90;;;11.90;49.70;;;;;;4988781;28;20030;-81
2022/03/23 01:09:54;;;;;;;1999.90;999.90;;;11.90;49.70;;;;;;4990400;28;20038;-81
2022/03/23 01:12:20;;;;;;;1999.90;999.90;;;11.90;49.70;;;;;;4989983;28;20034;-89
2022/03/23 01:14:46;;;;;;;1999.90;999.90;;;11.90;49.70;;;;;;4973728;28;20403;-90
2022/03/23 01:17:12;;;;;;;1999.90;999.90;;;11.90;49.80;;;;;;5002232;28;20069;-89
2022/03/23 01:19:38;;;;;;;1999.90;999.90;;;11.80;49.80;;;;;;4988754;28;20049;-90
2022/03/23 01:22:05;;;;;;;1999.90;999.90;;;11.80;49.80;;;;;;4991462;28;20031;-89
2022/03/23 01:24:31;;;;;;;1999.90;999.90;;;11.80;49.80;;;;;;5004403;28;20046;-89
2022/03/23 01:26:57;;;;;;;1999.90;999.90;;;11.70;49.70;;;;;;4991845;28;20391;-90
2022/03/23 01:29:23;;;;;;;1999.90;999.90;;;11.70;49.80;;;;;;4988012;28;20054;-89
2022/03/23 01:31:49;;;;;;;1999.90;999.90;;;11.70;49.80;;;;;;4988577;28;20042;-90
2022/03/23 01:34:15;;;;;;;1999.90;999.90;;;11.70;49.80;;;;;;4988702;28;20042;-91
2022/03/23 01:36:42;;;;;;;1999.90;999.90;;;11.60;50.50;;;;;;4989308;28;20026;-90
2022/03/23 01:39:08;;;;;;;1999.90;999.90;;;11.60;49.90;;;;;;4975966;28;20042;-90
2022/03/23 01:41:38;;;;;;;1999.90;999.90;;;11.50;49.80;;;;;;4998475;28;20034;-90
2022/03/23 01:44:18;;;;;;;1999.90;999.90;;;11.50;49.90;;;;;;4970768;28;20038;-89
2022/03/23 01:47:08;;;;;;;1999.90;999.90;;;11.50;49.90;;;;;;4971386;28;20031;-90
2022/03/23 01:49:35;;;;;;;1999.90;999.90;;;11.50;49.90;;;;;;4970303;28;20034;-90
2022/03/23 01:52:03;;;;;;;1999.90;999.90;;;11.50;49.80;;;;;;5002860;28;20034;-89
2022/03/23 01:54:29;;;;;;;1999.90;999.90;;;11.50;49.80;;;;;;5006198;28;20050;-89
2022/03/23 01:56:55;;;;;;;1999.90;999.90;;;11.50;49.80;;;;;;4986146;28;20053;-91
2022/03/23 01:59:21;;;;;;;1999.90;999.90;;;11.50;49.80;;;;;;4986506;28;20049;-90
2022/03/23 02:01:48;;;;;;;1999.90;999.90;;;11.40;49.80;;;;;;4959728;28;20043;-91
2022/03/23 02:04:14;;;;;;;1999.90;999.90;;;11.40;49.80;;;;;;4989264;28;20049;-89
2022/03/23 02:06:40;;;;;;;1999.90;999.90;;;11.50;49.80;;;;;;4990405;28;20029;-90
2022/03/23 02:09:06;;;;;;;1999.90;999.90;;;11.40;49.90;;;;;;4973995;28;20411;-89
2022/03/23 02:11:35;;;;;;;1999.90;999.90;;;11.40;49.90;;;;;;4986384;28;20043;-89
2022/03/23 02:14:01;;;;;;;1999.90;999.90;;;11.40;50.00;;;;;;4987787;28;20038;-91
2022/03/23 02:16:27;;;;;;;1999.90;999.90;;;11.30;50.00;;;;;;5005125;28;20039;-90
2022/03/23 02:18:53;;;;;;;1999.90;999.90;;;11.30;50.00;;;;;;4988914;28;20042;-88
2022/03/23 02:21:19;;;;;;;1999.90;999.90;;;11.20;50.00;;;;;;4989997;28;20041;-90
2022/03/23 02:23:45;;;;;;;1999.90;999.90;;;11.20;50.10;;;;;;4991654;28;20377;-90
2022/03/23 02:26:12;;;;;;;1999.90;999.90;;;11.20;50.20;;;;;;4957666;28;20050;-89
2022/03/23 02:28:38;;;;;;;1999.90;999.90;;;11.10;50.20;;;;;;4974502;28;20034;-90
2022/03/23 02:31:05;;;;;;;1999.90;999.90;;;11.10;50.20;;;;;;4988217;28;20038;-90
2022/03/23 02:33:31;;;;;;;1999.90;999.90;;;11.10;50.30;;;;;;4991111;28;20039;-90
2022/03/23 02:35:57;;;;;;;1999.90;999.90;;;11.10;50.40;;;;;;5008426;28;20145;-90
2022/03/23 02:38:23;;;;;;;1999.90;999.90;;;11.00;50.30;;;;;;5003724;28;20038;-92
2022/03/23 02:40:49;;;;;;;1999.90;999.90;;;11.00;50.30;;;;;;4989382;28;20030;-88
2022/03/23 02:43:15;;;;;;;1999.90;999.90;;;11.00;50.40;;;;;;5006264;28;20035;-89
2022/03/23 02:45:41;;;;;;;1999.90;999.90;;;10.90;50.40;;;;;;5003635;28;20118;-91
2022/03/23 02:48:09;;;;;;;1999.90;999.90;;;10.90;50.50;;;;;;4992332;28;20041;-90
2022/03/23 02:50:35;;;;;;;1999.90;999.90;;;10.80;50.70;;;;;;5005150;28;20030;-90
2022/03/23 03:04:14;;;;;;;1999.90;999.90;;;10.50;50.70;;;;;;4992176;28;20042;-90
2022/03/23 03:06:40;;;;;;;1999.90;999.90;;;10.50;50.70;;;;;;5002969;28;20301;-89
2022/03/23 03:09:06;;;;;;;1999.90;999.90;;;10.50;50.80;;;;;;5006342;28;20030;-92
2022/03/23 03:11:32;;;;;;;1999.90;999.90;;;10.40;50.90;;;;;;5008440;28;20459;-90
2022/03/23 03:13:58;;;;;;;1999.90;999.90;;;10.40;50.90;;;;;;4984047;28;20030;-91
2022/03/23 03:16:25;;;;;;;1999.90;999.90;;;10.30;50.90;;;;;;4990844;28;20050;-89
2022/03/23 03:18:51;;;;;;;1999.90;999.90;;;10.30;51.10;;;;;;5005545;28;20042;-91
2022/03/23 03:21:18;;;;;;;1999.90;999.90;;;10.20;51.00;;;;;;4972304;28;20045;-90
2022/03/23 03:23:45;;;;;;;1999.90;999.90;;;10.20;51.00;;;;;;5006912;28;20029;-89
2022/03/23 03:26:12;;;;;;;1999.90;999.90;;;10.10;51.00;;;;;;4966524;28;20058;-90
2022/03/23 03:28:39;;;;;;;1999.90;999.90;;;10.10;51.10;;;;;;4984432;28;20110;-90
2022/03/23 03:31:07;;;;;;;1999.90;999.90;;;10.00;51.20;;;;;;4988797;28;20102;-89
2022/03/23 03:33:33;;;;;;;1999.90;999.90;;;10.00;51.20;;;;;;4987550;28;20464;-88
2022/03/23 03:35:59;;;;;;;1999.90;999.90;;;9.90;51.30;;;;;;5008703;28;20034;-91
2022/03/23 03:38:27;;;;;;;1999.90;999.90;;;9.90;51.40;;;;;;4996805;28;20090;-89
2022/03/23 03:40:53;;;;;;;1999.90;999.90;;;9.80;51.50;;;;;;4994877;28;20037;-89
2022/03/23 03:43:20;;;;;;;1999.90;999.90;;;9.70;51.60;;;;;;4966236;28;20462;-89
2022/03/23 03:45:46;;;;;;;1999.90;999.90;;;9.60;51.60;;;;;;4973965;28;20042;-90
2022/03/23 03:48:13;;;;;;;1999.90;999.90;;;9.60;51.70;;;;;;4993977;28;20027;-81
2022/03/23 03:50:39;;;;;;;1999.90;999.90;;;9.60;51.70;;;;;;4992870;28;20034;-79
2022/03/23 03:53:09;;;;;;;1999.90;999.90;;;9.60;51.80;;;;;;5008488;28;20027;-80
2022/03/23 03:55:36;;;;;;;1999.90;999.90;;;9.60;51.70;;;;;;4990582;28;20030;-79
2022/03/23 03:58:03;;;;;;;1999.90;999.90;;;9.60;51.60;;;;;;4992782;28;20026;-81
2022/03/23 04:00:30;;;;;;;1999.90;999.90;;;9.60;51.60;;;;;;4969861;28;20397;-84
2022/03/23 04:02:57;;;;;;;1999.90;999.90;;;9.70;51.70;;;;;;4988085;28;20022;-84
2022/03/23 04:05:23;;;;;;;1999.90;999.90;;;9.70;51.60;;;;;;4951584;28;20054;-84
2022/03/23 04:07:49;;;;;;;1999.90;999.90;;;9.70;51.70;;;;;;4982189;28;20031;-82
2022/03/23 04:10:15;;;;;;;1999.90;999.90;;;9.60;51.80;;;;;;4972783;28;20035;-84
2022/03/23 04:12:41;;;;;;;1999.90;999.90;;;9.50;51.80;;;;;;4972430;28;20030;-81
2022/03/23 04:15:08;;;;;;;1999.90;999.90;;;9.50;51.90;;;;;;4974783;28;20041;-82
2022/03/23 04:17:34;;;;;;;1999.90;999.90;;;9.40;51.90;;;;;;4993437;28;20026;-83
2022/03/23 04:20:00;;;;;;;1999.90;999.90;;;9.30;52.00;;;;;;5006015;28;20057;-82
2022/03/23 04:22:26;;;;;;;1999.90;999.90;;;9.30;52.20;;;;;;4991214;28;20392;-85
2022/03/23 04:24:52;;;;;;;1999.90;999.90;;;9.20;52.20;;;;;;4991102;28;20050;-85
2022/03/23 04:27:18;;;;;;;1999.90;999.90;;;9.10;52.20;;;;;;4973887;28;20039;-83
2022/03/23 04:29:45;;;;;;;1999.90;999.90;;;9.10;52.30;;;;;;5008757;28;20030;-84
2022/03/23 04:32:11;;;;;;;1999.90;999.90;;;9.10;52.30;;;;;;4988350;28;20038;-86
2022/03/23 04:34:37;;;;;;;1999.90;999.90;;;9.10;52.40;;;;;;4988243;28;20067;-86
2022/03/23 04:37:03;;;;;;;1999.90;999.90;;;9.00;52.30;;;;;;4990714;28;20045;-86
2022/03/23 04:39:29;;;;;;;1999.90;999.90;;;9.00;52.30;;;;;;4976194;28;20031;-85
2022/03/23 04:41:55;;;;;;;1999.90;999.90;;;9.00;52.40;;;;;;4992431;28;20057;-85
2022/03/23 04:44:21;;;;;;;1999.90;999.90;;;9.00;52.40;;;;;;4990673;28;20043;-86
2022/03/23 04:46:47;;;;;;;1999.90;999.90;;;8.90;52.50;;;;;;4974239;28;20057;-85
2022/03/23 04:49:14;;;;;;;1999.90;999.90;;;8.80;52.50;;;;;;4973376;28;20045;-86
2022/03/23 04:51:40;;;;;;;1999.90;999.90;;;8.80;52.50;;;;;;4973519;28;20031;-85
2022/03/23 04:54:06;;;;;;;1999.90;999.90;;;8.80;52.60;;;;;;4958964;28;20046;-86
2022/03/23 04:56:33;;;;;;;1999.90;999.90;;;8.80;52.60;;;;;;4992546;28;20049;-85
2022/03/23 04:58:59;;;;;;;1999.90;999.90;;;8.70;52.60;;;;;;4974470;28;20027;-86
2022/03/23 05:01:26;;;;;;;1999.90;999.90;;;8.70;52.70;;;;;;4990130;28;20038;-84
2022/03/23 05:03:52;;;;;;;1999.90;999.90;;;8.60;52.80;;;;;;4989909;28;20897;-84
2022/03/23 05:06:21;;;;;;;1999.90;999.90;;;8.60;53.00;;;;;;4974336;28;20045;-84
2022/03/23 05:08:48;;;;;;;1999.90;999.90;;;8.60;52.90;;;;;;4993659;28;20459;-84
2022/03/23 05:11:14;;;;;;;1999.90;999.90;;;8.60;52.90;;;;;;4991245;28;20042;-85
2022/03/23 05:13:40;;;;;;;1999.90;999.90;;;8.50;52.80;;;;;;4988966;28;20023;-86
2022/03/23 05:16:07;;;;;;;1999.90;999.90;;;8.50;53.50;;;;;;4990061;28;20081;-86
2022/03/23 05:18:34;;;;;;;1999.90;999.90;;;8.40;52.90;;;;;;4990084;28;20471;-85
2022/03/23 05:21:00;;;;;;;1999.90;999.90;;;8.40;52.90;;;;;;4975830;28;20037;-86
2022/03/23 05:23:26;;;;;;;1999.90;999.90;;;8.40;53.00;;;;;;4990301;28;20399;-85
2022/03/23 05:25:52;;;;;;;1999.90;999.90;;;8.40;53.00;;;;;;4990773;28;20046;-86
2022/03/23 05:28:18;;;;;;;1999.90;999.90;;;8.40;52.90;;;;;;4990226;28;20395;-87
2022/03/23 05:30:44;;;;;;;1999.90;999.90;;;8.40;52.90;;;;;;4988238;28;20039;-86
2022/03/23 05:33:10;;;;;;;1999.90;999.90;;;8.50;52.80;;;;;;4973547;28;20027;-87
2022/03/23 05:35:36;;;;;;;1999.90;999.90;;;8.60;52.70;;;;;;4972725;28;20115;-88
2022/03/23 05:38:04;;;;;;;1999.90;999.90;;;8.60;52.60;;;;;;4973559;28;20514;-87
2022/03/23 05:40:30;;;;;;;1999.90;999.90;;;8.60;52.60;;;;;;4989937;28;20027;-88
2022/03/23 05:42:56;;;;;;;1999.90;999.90;;;8.60;52.70;;;;;;4988194;28;20399;-88
2022/03/23 05:45:22;;;;;;;1999.90;999.90;;;8.50;52.70;;;;;;4971775;28;20049;-87
2022/03/23 05:47:52;;;;;;;1999.90;999.90;;;8.50;52.80;;;;;;5007807;28;20030;-86
2022/03/23 05:50:18;;;;;;;1999.90;999.90;;;8.40;52.80;;;;;;4972052;28;20046;-84
2022/03/23 05:52:44;;;;;;;1999.90;999.90;;;8.40;52.80;;;;;;4988169;28;20022;-86
2022/03/23 05:55:11;;;;;;;1999.90;999.90;;;8.40;52.90;;;;;;4971974;28;20041;-87
2022/03/23 05:57:37;;;;;;;1999.90;999.90;;;8.30;53.00;;;;;;4972577;28;20471;-86
2022/03/23 06:00:07;;;;;;;1999.90;999.90;;;8.20;53.00;;;;;;4990320;28;20483;-84
2022/03/23 06:02:33;;;;;;;1999.90;999.90;;;8.20;53.00;;;;;;4989119;28;20053;-86
2022/03/23 06:04:59;;;;;;;1999.90;999.90;;;8.20;52.90;;;;;;4989600;28;20043;-86
2022/03/23 06:07:25;;;;;;;1999.90;999.90;;;8.20;52.80;;;;;;4989224;28;20027;-85
2022/03/23 06:09:51;;;;;;;1999.90;999.90;;;8.20;52.80;;;;;;4973884;28;20031;-85
2022/03/23 06:12:17;;;;;;;1999.90;999.90;;;8.20;52.80;;;;;;4972756;28;20034;-85
2022/03/23 06:14:44;;;;;;;1999.90;999.90;;;8.20;52.80;;;;;;5007206;28;20037;-85
2022/03/23 06:17:10;;;;;;;1999.90;999.90;;;8.20;52.80;;;;;;5004905;28;20034;-84
2022/03/23 06:19:36;;;;;;;1999.90;999.90;;;8.10;52.80;;;;;;4972181;28;20487;-86
2022/03/23 06:22:03;;;;;;;1999.90;999.90;;;8.10;52.80;;;;;;4973281;28;20042;-86
2022/03/23 06:24:30;;;;;;;1999.90;999.90;;;8.10;52.80;;;;;;4957953;28;20039;-86
2022/03/23 06:26:56;;;;;;;1999.90;999.90;;;8.00;52.70;;;;;;4992406;28;20578;-86
2022/03/23 06:29:22;;;;;;;1999.90;999.90;;;8.10;52.70;;;;;;4991927;28;20043;-87
2022/03/23 06:31:48;;;;;;;1999.90;999.90;;;8.10;52.70;;;;;;4990965;28;20035;-87
2022/03/23 06:34:15;;;;;;;1999.90;999.90;;;8.10;52.70;;;;;;4993425;28;20378;-87
2022/03/23 06:36:41;;;;;;;1999.90;999.90;;;8.10;52.60;;;;;;4993541;28;20026;-87
2022/03/23 06:39:07;;;;;;;1999.90;999.90;;;8.10;52.50;;;;;;4978129;28;20034;-86
2022/03/23 06:41:33;;;;;;;1999.90;999.90;;;8.10;52.50;;;;;;5010220;28;20471;-86
2022/03/23 06:43:59;;;;;;;1999.90;999.90;;;8.10;52.50;;;;;;4992953;28;20034;-86
2022/03/23 06:46:28;;;;;;;1999.90;999.90;;;8.20;52.40;;;;;;4960716;28;20038;-85
2022/03/23 06:48:54;;;;;;;1999.90;999.90;;;8.40;52.10;;;;;;4991497;28;20046;-82
2022/03/23 06:51:20;;;;;;;1999.90;999.90;;;8.50;51.80;;;;;;4993269;28;20042;-90
2022/03/23 06:53:46;;;;;;;1999.90;999.90;;;8.70;51.50;;;;;;5011074;28;20026;-91
2022/03/23 06:56:13;;;;;;;1999.90;999.90;;;8.90;51.30;;;;;;4993497;28;20053;-93
2022/03/23 06:58:39;;;;;;;1999.90;999.90;;;9.00;51.00;;;;;;4991357;28;20030;-88
2022/03/23 07:01:05;;;;;;;1999.90;999.90;;;9.20;50.70;;;;;;4974495;28;20042;-90
2022/03/23 07:03:31;;;;;;;1999.90;999.90;;;9.30;50.60;;;;;;4992275;28;20379;-89
2022/03/23 07:05:57;;;;;;;1999.90;999.90;;;9.50;50.40;;;;;;4972003;28;20057;-87
2022/03/23 07:11:08;;;;;;;1999.90;999.90;;;9.80;50.10;;;;;;4992762;28;20050;-87
2022/03/23 07:13:34;;;;;;;1999.90;999.90;;;9.90;50.40;;;;;;5006219;28;20498;-88
2022/03/23 07:16:00;;;;;;;1999.90;999.90;;;10.00;49.50;;;;;;4990404;28;20041;-89
2022/03/23 07:18:27;;;;;;;1999.90;999.90;;;10.10;49.50;;;;;;4975807;28;20039;-83
2022/03/23 07:20:53;;;;;;;1999.90;999.90;;;10.20;49.40;;;;;;4993335;28;20030;-84
2022/03/23 07:23:19;;;;;;;1999.90;999.90;;;10.30;49.20;;;;;;4991030;28;20034;-83
2022/03/23 07:25:45;;;;;;;1999.90;999.90;;;10.40;49.10;;;;;;4991708;28;20049;-84
2022/03/23 07:28:11;;;;;;;1999.90;999.90;;;10.50;48.90;;;;;;4973213;28;20038;-85
2022/03/23 07:30:40;;;;;;;1999.90;999.90;;;10.70;48.80;;;;;;4975425;28;20054;-84
2022/03/23 07:33:06;;;;;;;1999.90;999.90;;;10.80;48.60;;;;;;4994938;28;20029;-84
2022/03/23 07:35:32;;;;;;;1999.90;999.90;;;10.90;48.40;;;;;;4991859;28;20030;-84
2022/03/23 07:37:58;;;;;;;1999.90;999.90;;;11.00;48.30;;;;;;5006879;28;20030;-84
2022/03/23 07:40:24;;;;;;;1999.90;999.90;;;11.10;48.20;;;;;;5005615;28;20483;-84
2022/03/23 07:42:50;;;;;;;1999.90;999.90;;;11.20;48.10;;;;;;4990577;28;20041;-85
2022/03/23 07:45:17;;;;;;;1999.90;999.90;;;11.30;47.90;;;;;;4974644;28;20488;-92
2022/03/23 07:47:44;;;;;;;1999.90;999.90;;;11.40;47.70;;;;;;4992095;28;20041;-85
2022/03/23 07:50:10;;;;;;;1999.90;999.90;;;11.50;47.60;;;;;;4992904;28;20472;-89
2022/03/23 07:52:36;;;;;;;1999.90;999.90;;;11.60;47.60;;;;;;5006403;28;20053;-83
2022/03/23 07:55:03;;;;;;;1999.90;999.90;;;11.70;47.40;;;;;;4992755;28;20038;-83
2022/03/23 07:57:29;;;;;;;1999.90;999.90;;;11.80;47.40;;;;;;4991430;28;20035;-84
2022/03/23 07:59:55;;;;;;;1999.90;999.90;;;11.90;47.30;;;;;;4992892;28;20054;-90
2022/03/23 08:02:23;;;;;;;1999.90;999.90;;;12.10;47.20;;;;;;4973774;28;20049;-86
2022/03/23 08:04:50;;;;;;;1999.90;999.90;;;12.20;47.00;;;;;;4992185;28;20069;-86
2022/03/23 08:07:16;;;;;;;1999.90;999.90;;;12.30;47.00;;;;;;4990793;28;20037;-93
2022/03/23 08:09:42;;;;;;;1999.90;999.90;;;12.40;46.90;;;;;;5008041;28;20034;-91
2022/03/23 08:12:09;;;;;;;1999.90;999.90;;;12.50;46.80;;;;;;4975728;28;20042;-90
2022/03/23 08:14:35;;;;;;;1999.90;999.90;;;12.60;46.80;;;;;;5008615;28;20075;-92
2022/03/23 08:17:01;;;;;;;1999.90;999.90;;;12.80;46.70;;;;;;4986366;28;20026;-94
2022/03/23 08:19:27;;;;;;;1999.90;999.90;;;13.00;46.50;;;;;;4975025;28;20061;-91
2022/03/23 08:21:54;;;;;;;1999.90;999.90;;;13.20;46.30;;;;;;4973842;28;20055;-89
2022/03/23 08:24:20;;;;;;;1999.90;999.90;;;13.40;46.20;;;;;;4991261;28;20077;-88
2022/03/23 08:26:47;;;;;;;1999.90;999.90;;;13.60;46.00;;;;;;5008465;28;20514;-88
2022/03/23 08:29:13;;;;;;;1999.90;999.90;;;13.80;45.90;;;;;;4973161;28;20042;-88
2022/03/23 08:31:39;;;;;;;1999.90;999.90;;;13.90;45.80;;;;;;4959517;28;20038;-88
2022/03/23 08:34:06;;;;;;;1999.90;999.90;;;14.10;45.70;;;;;;4959812;28;20050;-88
2022/03/23 08:36:32;;;;;;;1999.90;999.90;;;14.30;45.50;;;;;;4957661;28;20046;-88
2022/03/23 08:38:58;;;;;;;1999.90;999.90;;;14.50;45.30;;;;;;4975934;28;20045;-88
2022/03/23 08:41:25;;;;;;;1999.90;999.90;;;14.60;45.10;;;;;;4976139;28;20046;-93
2022/03/23 08:43:51;;;;;;;1999.90;999.90;;;14.70;44.90;;;;;;4990414;28;20031;-90
2022/03/23 08:46:17;;;;;;;1999.90;999.90;;;14.80;44.80;;;;;;4975851;28;20058;-91
2022/03/23 08:48:43;;;;;;;1999.90;999.90;;;14.80;44.90;;;;;;4990263;28;20039;-91
2022/03/23 08:51:10;;;;;;;1999.90;999.90;;;15.00;44.80;;;;;;4976073;28;20039;-92
2022/03/23 08:53:38;;;;;;;1999.90;999.90;;;15.20;44.50;;;;;;4991309;28;20035;-93
2022/03/23 08:56:05;;;;;;;1999.90;999.90;;;15.30;44.30;;;;;;4990815;28;20034;-94
2022/03/23 08:58:31;;;;;;;1999.90;999.90;;;15.40;44.20;;;;;;4974277;28;20038;-90
2022/03/23 09:00:57;;;;;;;1999.90;999.90;;;15.50;43.90;;;;;;4972695;28;20035;-87
2022/03/23 09:03:24;;;;;;;1999.90;999.90;;;15.70;44.50;;;;;;4972473;28;20038;-87
2022/03/23 09:05:50;;;;;;;1999.90;999.90;;;15.90;43.50;;;;;;5006411;28;20053;-88
2022/03/23 09:08:16;;;;;;;1999.90;999.90;;;16.00;43.30;;;;;;4988696;28;20038;-88
2022/03/23 09:10:42;;;;;;;1999.90;999.90;;;16.20;43.20;;;;;;4991266;28;20042;-87
2022/03/23 09:13:08;;;;;;;1999.90;999.90;;;16.30;42.90;;;;;;4989965;28;20034;-86
2022/03/23 09:15:35;;;;;;;1999.90;999.90;;;16.40;42.70;;;;;;4973869;28;20399;-90
2022/03/23 09:18:01;;;;;;;1999.90;999.90;;;16.40;42.30;;;;;;4976257;28;20026;-78
2022/03/23 09:20:30;;;;;;;1999.90;999.90;;;16.50;42.40;;;;;;4990383;28;20045;-78
2022/03/23 09:22:59;;;;;;;1999.90;999.90;;;16.50;42.10;;;;;;4989568;28;20030;-78
2022/03/23 09:25:25;;;;;;;1999.90;999.90;;;16.50;41.80;;;;;;4988592;28;20042;-78
2022/03/23 09:27:52;;;;;;;1999.90;999.90;;;16.50;41.80;;;;;;4988878;28;20479;-78
2022/03/23 09:30:18;;;;;;;1999.90;999.90;;;16.60;41.90;;;;;;4973010;28;20031;-78
2022/03/23 09:32:46;;;;;;;1999.90;999.90;;;16.70;41.40;;;;;;4989863;28;20046;-76
2022/03/23 09:35:14;;;;;;;1999.90;999.90;;;16.80;41.80;;;;;;4972655;28;20034;-77
2022/03/23 09:37:49;;;;;;;1999.90;999.90;;;16.90;40.70;;;;;;4972748;28;20047;-77
2022/03/23 09:40:20;;;;;;;1999.90;999.90;;;17.10;40.50;;;;;;4989724;28;20042;-75
2022/03/23 09:42:46;;;;;;;1999.90;999.90;;;17.30;40.50;;;;;;4989479;28;20029;-77
2022/03/23 09:45:30;;;;;;;1999.90;999.90;;;17.50;40.20;;;;;;4991135;28;20392;-76
2022/03/23 09:47:56;;;;;;;1999.90;999.90;;;17.80;39.90;;;;;;5003816;28;20034;-76
2022/03/23 09:50:25;;;;;;;1999.90;999.90;;;18.10;39.50;;;;;;4989105;28;20403;-79
2022/03/23 09:52:51;;;;;;;1999.90;999.90;;;18.10;38.80;;;;;;4986802;28;20030;-77
2022/03/23 09:55:18;;;;;;;1999.90;999.90;;;18.10;38.30;;;;;;4970862;28;20031;-77
2022/03/23 09:57:44;;;;;;;1999.90;999.90;;;17.90;37.70;;;;;;4989284;28;20038;-77
2022/03/23 10:00:10;;;;;;;1999.90;999.90;;;17.80;37.70;;;;;;5006145;28;20045;-76
2022/03/23 10:02:39;;;;;;;1999.90;999.90;;;17.80;37.70;;;;;;4989357;28;20037;-76
2022/03/23 10:05:24;;;;;;;1999.90;999.90;;;17.90;37.60;;;;;;4987532;28;20035;-77
2022/03/23 10:07:56;;;;;;;1999.90;999.90;;;18.10;37.60;;;;;;4988873;28;20026;-77
2022/03/23 10:11:00;;;;;;;1999.90;999.90;;;18.20;37.30;;;;;;4987409;28;20069;-76
2022/03/23 10:14:03;;;;;;;1999.90;999.90;;;18.30;37.10;;;;;;4988758;28;20387;-77
2022/03/23 10:17:11;;;;;;;1999.90;999.90;;;18.40;36.40;;;;;;4990354;28;20029;-77
2022/03/23 10:19:44;;;;;;;1999.90;999.90;;;18.50;36.50;;;;;;4987742;28;20395;-77
2022/03/23 10:22:12;;;;;;;1999.90;999.90;;;18.60;36.50;;;;;;5005646;28;20041;-76
2022/03/23 10:24:39;;;;;;;1999.90;999.90;;;18.80;36.50;;;;;;4987529;28;20061;-77
2022/03/23 10:27:09;;;;;;;1999.90;999.90;;;19.00;36.40;;;;;;4988437;28;21486;-77
2022/03/23 10:29:46;;;;;;;1999.90;999.90;;;19.20;36.40;;;;;;5001055;28;20023;-75
2022/03/23 10:32:13;;;;;;;1999.90;999.90;;;19.40;36.30;;;;;;4986358;28;20518;-76
2022/03/23 10:34:42;;;;;;;1999.90;999.90;;;19.50;36.20;;;;;;5003365;28;20034;-75
2022/03/23 10:37:09;;;;;;;1999.90;999.90;;;19.60;36.00;;;;;;4987348;28;20026;-79
2022/03/23 10:39:35;;;;;;;1999.90;999.90;;;19.50;35.60;;;;;;4987325;28;20037;-77
2022/03/23 10:42:18;;;;;;;1999.90;999.90;;;19.40;35.20;;;;;;4989806;28;20034;-77
2022/03/23 10:44:47;;;;;;;1999.90;999.90;;;19.30;35.50;;;;;;4988880;28;20407;-76
2022/03/23 10:47:27;;;;;;;1999.90;999.90;;;19.30;35.60;;;;;;5004773;28;20468;-76
2022/03/23 10:49:53;;;;;;;1999.90;999.90;;;19.50;35.50;;;;;;4972089;28;20029;-77
2022/03/23 10:52:20;;;;;;;1999.90;999.90;;;19.50;35.30;;;;;;4986791;28;20035;-76
2022/03/23 10:54:57;;;;;;;1999.90;999.90;;;19.60;35.30;;;;;;5005391;28;20045;-76
2022/03/23 10:57:36;;;;;;;1999.90;999.90;;;19.70;35.30;;;;;;4989532;28;20042;-77
2022/03/23 11:00:03;;;;;;;1999.90;999.90;;;19.80;35.30;;;;;;5004586;28;20050;-88
2022/03/23 11:02:29;;;;;;;1999.90;999.90;;;19.90;35.20;;;;;;4986722;28;20037;-88
2022/03/23 11:04:57;;;;;;;1999.90;999.90;;;19.90;35.20;;;;;;4988258;28;20039;-91
2022/03/23 11:07:28;;;;;;;1999.90;999.90;;;20.00;35.00;;;;;;4988272;28;20534;-88
2022/03/23 11:18:11;;;;;;;1999.90;999.90;;;20.30;34.70;;;;;;5003970;28;20026;-80
2022/03/23 11:20:41;;;;;;;1999.90;999.90;;;20.30;34.20;;;;;;4992565;28;20034;-80
2022/03/23 11:23:35;;;;;;;1999.90;999.90;;;20.20;34.10;;;;;;4989823;28;20034;-80
2022/03/23 11:26:03;;;;;;;1999.90;999.90;;;20.20;34.30;;;;;;4989260;28;20065;-80
2022/03/23 11:28:40;;;;;;;1999.90;999.90;;;20.30;34.10;;;;;;5007157;28;20026;-80
2022/03/23 11:31:08;;;;;;;1999.90;999.90;;;20.20;33.50;;;;;;5006067;28;20038;-81
2022/03/23 11:33:34;;;;;;;1999.90;999.90;;;20.00;33.50;;;;;;4975179;28;20376;-81
2022/03/23 11:36:01;;;;;;;1999.90;999.90;;;19.90;33.90;;;;;;4976806;28;20383;-81
2022/03/23 11:38:27;;;;;;;1999.90;999.90;;;20.00;33.90;;;;;;4974979;28;20391;-80
2022/03/23 11:40:54;;;;;;;1999.90;999.90;;;20.10;33.80;;;;;;4989740;28;20026;-80
2022/03/23 11:43:22;;;;;;;1999.90;999.90;;;20.10;33.20;;;;;;4974847;28;20471;-79
2022/03/23 11:45:50;;;;;;;1999.90;999.90;;;20.00;33.00;;;;;;4974144;28;20065;-79
2022/03/23 11:48:27;;;;;;;1999.90;999.90;;;19.90;32.90;;;;;;4958551;28;20054;-81
2022/03/23 11:51:34;;;;;;;1999.90;999.90;;;19.70;32.30;;;;;;5008522;28;20419;-81
2022/03/23 11:54:10;;;;;;;1999.90;999.90;;;19.60;32.30;;;;;;4933398;29;20043;-81
2022/03/23 11:56:44;;;;;;;1999.90;999.90;;;19.60;32.30;;;;;;4937416;29;20035;-80
2022/03/23 11:59:20;;;;;;;1999.90;999.90;;;19.50;31.90;;;;;;4936991;29;20146;-81
2022/03/23 12:01:47;;;;;;;1999.90;999.90;;;19.60;32.10;;;;;;4932992;29;20496;-80
2022/03/23 12:04:16;;;;;;;1999.90;999.90;;;19.70;31.80;;;;;;4935143;29;20031;-80
2022/03/23 12:06:42;;;;;;;1999.90;999.90;;;19.70;31.50;;;;;;4936884;29;20512;-81
2022/03/23 12:09:08;;;;;;;1999.90;999.90;;;19.70;31.50;;;;;;4951842;29;20040;-80
2022/03/23 12:11:41;;;;;;;1999.90;999.90;;;19.70;31.60;;;;;;4936427;29;20058;-79
2022/03/23 12:14:08;;;;;;;1999.90;999.90;;;19.70;31.30;;;;;;4937160;29;20040;-80
2022/03/23 12:16:46;;;;;;;1999.90;999.90;;;19.50;30.90;;;;;;4935754;29;20423;-81
2022/03/23 12:19:28;;;;;;;1999.90;999.90;;;19.50;31.10;;;;;;4949537;28;20035;-80
2022/03/23 12:22:05;;;;;;;1999.90;999.90;;;19.50;30.90;;;;;;4949038;29;20035;-80
2022/03/23 12:25:09;;;;;;;1999.90;999.90;;;19.60;30.80;;;;;;4959415;28;20034;-81
2022/03/23 12:27:39;;;;;;;1999.90;999.90;;;19.70;30.90;;;;;;4976176;28;20054;-81